• Join FlightAware (Why Join?)
  • Login
  • US Flag 
11:28AM EST


 

Airport Tracker/Info


-or-


 

Live Flight TrackerFlight Track Log ✈ N563WD ✈ 26-Jan-2014 ✈ KBKS - KHOU

Flight Track Log - Related Links

Times and Time Zones

All times are in EST time to prevent confusion due to time zone crossing. See the N563WD flight status page for this flight to view local times or setup timezone preferences in your user account.

Time Position Orientation Groundspeed Altitude Reporting Facility
EST Latitude Longitude Course Direction KTS MPH feet Rate Location/Type
12:00PM 27.2331 -98.0594 40° Northeast 249 287 3,700  Level Houston Center
12:01PM 27.2900 -98.0058 40° Northeast 260 299 7,100 3,060 Climbing Houston Center
12:02PM 27.3489 -97.9506 40° Northeast 265 305 10,100 2,220 Climbing Houston Center
12:03PM 27.4169 -97.8892 39° Northeast 304 350 11,800 1,740 Climbing Houston Center
12:04PM 27.4844 -97.8281 39° Northeast 330 380 13,700 2,220 Climbing Houston Center
12:05PM 27.5767 -97.7439 39° Northeast 359 413 16,400 2,220 Climbing Houston Center
12:06PM 27.6575 -97.6700 39° Northeast 365 420 18,300 1,740 Climbing Houston Center
12:07PM 27.7403 -97.5944 39° Northeast 370 426 20,100 1,740 Climbing Houston Center
12:08PM 27.8325 -97.5100 39° Northeast 382 440 22,000 1,380 Climbing Houston Center
12:09PM 27.9194 -97.4308 39° Northeast 391 450 23,000 480 Climbing Houston Center
12:10PM 28.0167 -97.3475 37° Northeast 426 490 23,000  Level Houston Center
12:11PM 28.1086 -97.2533 42° Northeast 438 504 23,000  Level Houston Center
12:12PM 28.2017 -97.1606 41° Northeast 438 504 23,000  Level Houston Center
12:13PM 28.2858 -97.0769 41° Northeast 438 504 23,000  Level Houston Center
12:14PM 28.3969 -96.9636 42° Northeast 447 514 23,000  Level Houston Center
12:15PM 28.4889 -96.8719 41° Northeast 443 510 23,000  Level Houston Center
12:16PM 28.5819 -96.7783 41° Northeast 446 513 23,000  Level Houston Center
12:17PM 28.6725 -96.6842 42° Northeast 444 511 23,000  Level Houston Center
12:18PM 28.7647 -96.5908 42° Northeast 445 512 23,000 -60 Level Houston Center
12:19PM 28.8750 -96.4794 41° Northeast 445 512 22,900 -1,140 Descending Houston Center
12:20PM 28.9636 -96.3881 42° Northeast 437 503 20,700 -2,340 Descending Houston Center
12:21PM 29.0333 -96.3122 44° Northeast 434 499 18,400 -2,220 Descending Houston Center
12:21PM 29.0531 -96.2953 37° Northeast 437 503 18,400 -1,740 Level Houston Center
12:22PM 29.0875 -96.2583 43° Northeast 431 496 17,500 -2,160 Descending Houston Center
12:22PM 29.1389 -96.2078 41° Northeast 421 484 16,200 -2,280 Descending Houston Center
12:23PM 29.1783 -96.1669 42° Northeast 409 471 15,200 -2,040 Descending Houston Center
12:23PM 29.2211 -96.1225 42° Northeast 406 467 14,100 -2,220 Descending Houston Center
12:24PM 29.2650 -96.0761 43° Northeast 391 450 13,000 -2,280 Descending Houston Center
12:25PM 29.3169 -96.0236 41° Northeast 392 451 11,800 -1,680 Descending Houston Center
12:25PM 29.3439 -95.9953 43° Northeast 382 440 11,300 -1,500 Descending Houston Center
12:26PM 29.3928 -95.9439 42° Northeast 376 433 10,300 -840 Descending Houston Center
12:27PM 29.4689 -95.8625 43° Northeast 375 432 9,900 -180 Descending Houston Center
12:27PM 29.5044 -95.8139 50° Northeast 386 444 10,100 -300 Climbing Houston Center
12:28PM 29.5219 -95.7622 69° East 380 437 9,600 -900 Descending Houston Center
12:28PM 29.5386 -95.7042 72° East 343 395 9,200 -900 Descending Houston Center
12:29PM 29.5522 -95.6594 71° East 348 400 8,700 -1,020 Descending Houston Center
12:29PM 29.5678 -95.6072 71° East 321 369 8,200 -1,260 Descending Houston Center
12:30PM 29.5853 -95.5447 72° East 322 371 7,400 -1,200 Descending Houston Center
12:30PM 29.5950 -95.5128 71° East 304 350 7,000 -1,380 Descending Houston Center
12:31PM 29.6122 -95.4558 71° East 304 350 6,000 -900 Descending Houston Center
12:31PM 29.6222 -95.4206 72° East 287 330 6,100 -120 Climbing Houston Center
12:32PM 29.6328 -95.3753 75° East 274 315 5,900  Descending Houston Center
12:32PM 29.6325 -95.3494 91° East 230 265 6,100  Climbing Houston Center
12:33PM 29.6294 -95.2994 94° East 239 275 5,900 -120 Descending Houston Center
12:33PM 29.6236 -95.2761 106° East 234 269 6,000 -1,200 Climbing Houston Center
12:34PM 29.6186 -95.2269 97° East 236 272 4,700 -1,800 Descending Houston Center
12:34PM 29.6167 -95.2000 95° East 240 276 4,200 -780 Descending Houston Center
12:35PM 29.6111 -95.1528 98° East 236 272 3,900 -120 Descending Houston Center
12:35PM 29.6269 -95.1292 52° Northeast 234 269 4,100 120 Climbing Houston Center
12:36PM 29.6644 -95.0594 58° Northeast 220 253 4,100 -60 Level Houston Center
12:37PM 29.7078 -95.0517 North 171 197 4,000 -660 Descending Houston Center
12:38PM 29.7361 -95.1083 300° West 163 188 2,700 -1,020 Descending Houston Center
12:39PM 29.7364 -95.1567 270° West 140 161 1,800 -720 Descending Houston Center
12:40PM 29.7189 -95.1925 241° Southwest 141 162 1,300 -360 Descending Houston Center
12:41PM 29.6944 -95.2242 228° Southwest 139 160 1,100 -480 Descending Houston Center
12:42PM 29.6639 -95.2567 223° Southwest 128 147 400 -660 Descending Houston Center